Time;durP1;ratioP1;P1;durP2;ratioP2;P2;SDS_P1;SDS_P2;PMS_P1;PMS_P2;Temp;Humidity;BMP_temperature;BMP_pressure;BME280_temperature;BME280_humidity;BME280_pressure;Samples;Min_cycle;Max_cycle;Signal;HPM_P1;HPM_P2
2022/06/21 00:01:01;;;;;;;4.47;2.27;;;;;;;16.32;80.11;98124.09;4202408;28;21207;-91
2022/06/21 00:03:06;;;;;;;2.83;2.13;;;;;;;16.20;79.89;98125.16;4204625;28;21228;-92
2022/06/21 00:05:15;;;;;;;3.20;1.93;;;;;;;16.10;80.95;98126.94;4203855;28;20680;-92
2022/06/21 00:07:22;;;;;;;3.47;2.50;;;;;;;16.04;80.29;98130.13;4219637;28;20682;-91
2022/06/21 00:09:25;;;;;;;3.40;2.30;;;;;;;16.02;80.51;98128.63;4209675;28;20692;-92
2022/06/21 00:11:32;;;;;;;2.97;2.20;;;;;;;15.92;82.02;98120.72;4204300;28;20998;-91
2022/06/21 00:13:36;;;;;;;2.50;1.80;;;;;;;15.89;79.90;98120.16;4206197;28;20712;-92
2022/06/21 00:15:40;;;;;;;4.77;2.23;;;;;;;15.81;82.13;98112.13;4201074;28;20630;-92
2022/06/21 00:17:47;;;;;;;3.10;2.00;;;;;;;15.75;81.54;98110.84;4223037;27;21140;-92
2022/06/21 00:19:51;;;;;;;3.20;2.33;;;;;;;15.73;81.38;98115.44;4217857;28;20628;-92
2022/06/21 00:22:00;;;;;;;3.37;2.30;;;;;;;15.71;82.71;98112.09;4215069;28;20669;-91
2022/06/21 00:24:04;;;;;;;3.40;2.60;;;;;;;15.76;82.44;98119.59;4219471;28;20653;-91
2022/06/21 00:26:09;;;;;;;4.20;2.60;;;;;;;15.78;82.41;98112.38;4204682;28;20666;-91
2022/06/21 00:28:13;;;;;;;3.53;2.90;;;;;;;15.80;81.87;98115.72;4206023;28;21263;-92
2022/06/21 00:30:17;;;;;;;4.03;2.70;;;;;;;15.84;80.73;98111.84;4202885;28;20638;-92
2022/06/21 00:32:21;;;;;;;4.13;3.30;;;;;;;15.84;80.83;98114.47;4205231;28;20752;-92
2022/06/21 00:34:25;;;;;;;4.13;2.77;;;;;;;15.84;80.43;98115.31;4203125;28;20648;-91
2022/06/21 00:36:30;;;;;;;3.80;2.80;;;;;;;15.83;80.01;98112.81;4199495;28;20641;-92
2022/06/21 00:38:35;;;;;;;4.23;3.10;;;;;;;15.81;80.73;98107.69;4219949;28;20684;-92
2022/06/21 00:40:38;;;;;;;3.70;3.00;;;;;;;15.81;80.42;98105.06;4209670;28;22479;-92
2022/06/21 00:42:44;;;;;;;6.13;2.67;;;;;;;15.80;80.19;98110.44;4219493;28;20675;-92
2022/06/21 00:44:53;;;;;;;4.50;2.87;;;;;;;15.77;81.03;98094.94;4204822;28;20788;-92
2022/06/21 00:47:02;;;;;;;3.60;2.80;;;;;;;15.73;80.69;98107.53;4214029;28;21252;-92
2022/06/21 00:49:10;;;;;;;4.40;2.80;;;;;;;15.66;80.69;98100.31;4205175;28;20726;-92
2022/06/21 00:51:17;;;;;;;4.53;3.00;;;;;;;15.60;81.76;98103.50;4202308;28;20748;-92
2022/06/21 00:53:25;;;;;;;3.60;2.70;;;;;;;15.55;82.17;98106.53;4218963;28;20635;-92
2022/06/21 00:55:38;;;;;;;4.00;3.10;;;;;;;15.54;82.62;98111.09;4210943;28;20625;-92
2022/06/21 00:57:45;;;;;;;4.87;3.07;;;;;;;15.55;81.79;98105.69;4216514;28;20666;-92
2022/06/21 00:59:53;;;;;;;4.10;3.13;;;;;;;15.56;80.93;98110.81;4201862;28;20632;-92
2022/06/21 01:01:59;;;;;;;5.67;3.40;;;;;;;15.56;82.40;98116.09;4204671;28;20632;-92
2022/06/21 01:04:09;;;;;;;4.43;3.00;;;;;;;15.53;81.23;98112.06;4222035;28;20633;-93
2022/06/21 01:06:15;;;;;;;4.10;3.10;;;;;;;15.50;81.35;98096.53;4200108;28;20633;-92
2022/06/21 01:08:21;;;;;;;4.93;3.20;;;;;;;15.48;81.13;98095.84;4211071;28;20622;-91
2022/06/21 01:10:26;;;;;;;4.37;3.07;;;;;;;15.48;80.58;98093.22;4220179;28;20632;-92
2022/06/21 01:12:33;;;;;;;4.07;3.20;;;;;;;15.48;81.03;98088.78;4224545;28;20643;-92
2022/06/21 01:14:39;;;;;;;4.97;2.83;;;;;;;15.42;81.71;98094.59;4205677;28;20683;-92
2022/06/21 01:16:42;;;;;;;5.03;2.90;;;;;;;15.35;81.60;98092.63;4205451;28;20634;-93
2022/06/21 01:18:47;;;;;;;3.47;3.10;;;;;;;15.32;81.83;98082.38;4202984;28;20658;-92
2022/06/21 01:20:52;;;;;;;4.43;3.13;;;;;;;15.27;83.28;98089.84;4216262;28;20625;-92
2022/06/21 01:23:00;;;;;;;3.30;2.80;;;;;;;15.23;82.08;98089.28;4203798;28;20689;-92
2022/06/21 01:25:15;;;;;;;5.63;3.00;;;;;;;15.21;82.46;98082.50;4218595;28;20624;-93
2022/06/21 01:27:19;;;;;;;4.13;3.10;;;;;;;15.18;81.70;98090.63;4197029;28;20630;-93
2022/06/21 01:29:25;;;;;;;4.20;3.80;;;;;;;15.12;83.37;98086.72;4220652;28;20995;-92
2022/06/21 01:31:29;;;;;;;3.80;3.20;;;;;;;15.08;82.51;98084.50;4220369;28;21493;-92
2022/06/21 01:33:36;;;;;;;4.80;3.33;;;;;;;15.04;82.14;98079.66;4224091;28;21297;-92
2022/06/21 01:35:42;;;;;;;3.50;3.10;;;;;;;14.97;83.05;98074.06;4213546;28;20646;-92
2022/06/21 01:37:45;;;;;;;5.63;3.20;;;;;;;14.92;83.25;98076.25;4199778;28;21265;-92
2022/06/21 01:39:51;;;;;;;7.27;3.60;;;;;;;14.90;83.09;98082.59;4203116;28;20639;-92
2022/06/21 01:41:58;;;;;;;4.93;3.50;;;;;;;14.85;83.10;98080.38;4203913;28;20645;-92
2022/06/21 01:44:05;;;;;;;4.13;2.97;;;;;;;14.86;82.96;98089.91;4205258;28;20672;-92
2022/06/21 01:46:11;;;;;;;5.23;3.60;;;;;;;14.82;83.56;98085.88;4195281;28;21013;-92
2022/06/21 01:48:17;;;;;;;4.77;3.30;;;;;;;14.82;82.03;98082.44;4196628;28;20634;-92
2022/06/21 01:50:22;;;;;;;5.90;3.30;;;;;;;14.78;83.59;98076.63;4219519;28;20685;-92
2022/06/21 01:52:28;;;;;;;3.77;3.10;;;;;;;14.73;83.14;98075.34;4200783;28;20648;-92
2022/06/21 01:54:36;;;;;;;4.17;3.47;;;;;;;14.71;83.21;98075.47;4204032;28;20627;-92
2022/06/21 01:56:40;;;;;;;5.90;3.80;;;;;;;14.69;82.86;98077.41;4216905;28;20634;-92
2022/06/21 01:58:49;;;;;;;5.70;3.57;;;;;;;14.63;83.60;98059.53;4201831;28;20659;-92
2022/06/21 02:00:56;;;;;;;4.83;3.17;;;;;;;14.59;82.81;98053.84;4218360;28;20634;-91
2022/06/21 02:03:08;;;;;;;4.17;3.20;;;;;;;14.58;82.74;98041.69;4202666;28;21021;-91
2022/06/21 02:05:13;;;;;;;3.60;3.10;;;;;;;14.59;81.48;98039.75;4208717;28;20637;-91
2022/06/21 02:07:20;;;;;;;4.30;3.20;;;;;;;14.70;81.45;98041.47;4217378;28;21193;-91
2022/06/21 02:09:26;;;;;;;4.47;3.10;;;;;;;14.69;81.85;98035.38;4201860;28;20624;-91
2022/06/21 02:11:33;;;;;;;3.90;3.50;;;;;;;14.68;82.60;98023.22;4222727;28;20731;-91
2022/06/21 02:13:40;;;;;;;3.73;3.27;;;;;;;14.69;82.34;98024.88;4220086;28;20993;-91
2022/06/21 02:15:45;;;;;;;4.17;3.27;;;;;;;14.71;82.70;98024.75;4218625;28;20875;-92
2022/06/21 02:17:51;;;;;;;4.37;3.13;;;;;;;14.70;83.49;98015.22;4220202;28;20644;-91
2022/06/21 02:19:57;;;;;;;3.87;3.50;;;;;;;14.68;82.95;98022.41;4216952;28;21607;-91
2022/06/21 02:22:00;;;;;;;4.67;3.30;;;;;;;14.65;82.37;98015.59;4205508;28;20680;-91
2022/06/21 02:24:03;;;;;;;4.70;3.90;;;;;;;14.64;82.40;98011.34;4217044;28;21232;-91
2022/06/21 02:26:07;;;;;;;4.10;3.37;;;;;;;14.63;82.07;98012.28;4207607;28;21147;-92
2022/06/21 02:28:14;;;;;;;4.17;3.47;;;;;;;14.54;83.52;98019.28;4221750;28;21035;-91
2022/06/21 02:30:20;;;;;;;3.30;2.93;;;;;;;14.50;82.70;98020.50;4203112;28;20633;-91
2022/06/21 02:32:27;;;;;;;4.70;2.93;;;;;;;14.52;83.46;98037.78;4221662;28;20646;-91
2022/06/21 02:34:35;;;;;;;6.07;3.70;;;;;;;14.49;83.79;98030.16;4217767;28;20680;-91
2022/06/21 02:36:45;;;;;;;4.33;3.50;;;;;;;14.52;83.00;98034.31;4226091;28;20675;-91
2022/06/21 02:38:50;;;;;;;3.60;3.30;;;;;;;14.52;82.82;98039.56;4208838;28;20655;-91
2022/06/21 02:40:58;;;;;;;4.47;3.33;;;;;;;14.54;82.92;98029.78;4206481;28;20648;-92
2022/06/21 02:43:03;;;;;;;5.80;3.33;;;;;;;14.56;82.82;98020.00;4217740;28;20858;-91
2022/06/21 02:45:20;;;;;;;3.47;2.90;;;;;;;14.52;82.86;98023.81;4202766;28;20651;-91
2022/06/21 02:47:39;;;;;;;3.77;3.30;;;;;;;14.51;82.97;98022.16;4223246;28;21283;-91
2022/06/21 02:49:49;;;;;;;3.47;2.97;;;;;;;14.46;83.08;98021.72;4219256;27;21255;-91
2022/06/21 02:51:55;;;;;;;3.83;3.33;;;;;;;14.43;83.47;98027.22;4223901;27;20666;-91
2022/06/21 02:54:04;;;;;;;4.30;3.67;;;;;;;14.42;83.42;98026.41;4220771;28;20702;-91
2022/06/21 02:56:10;;;;;;;4.00;3.37;;;;;;;14.42;83.99;98022.97;4205556;28;21239;-91
2022/06/21 02:58:19;;;;;;;5.00;4.10;;;;;;;14.41;82.65;98024.75;4206679;28;20637;-91
2022/06/21 03:00:24;;;;;;;5.33;3.57;;;;;;;14.37;83.70;98028.59;4235425;27;21176;-91
2022/06/21 03:02:30;;;;;;;4.63;3.60;;;;;;;14.34;83.62;98015.75;4203891;28;20671;-90
2022/06/21 03:04:35;;;;;;;3.70;3.30;;;;;;;14.34;82.89;98002.63;4200890;28;20994;-91
2022/06/21 03:06:40;;;;;;;3.40;3.10;;;;;;;14.32;83.62;98012.38;4220040;28;20705;-91
2022/06/21 03:08:48;;;;;;;3.90;3.50;;;;;;;14.30;84.07;98010.88;4208453;28;21219;-90
2022/06/21 03:10:52;;;;;;;5.53;3.80;;;;;;;14.30;83.24;98001.22;4219773;28;20727;-91
2022/06/21 03:12:59;;;;;;;5.53;3.80;;;;;;;14.30;83.91;98010.88;4218090;28;20656;-91
2022/06/21 03:15:08;;;;;;;4.27;3.87;;;;;;;14.33;83.47;98008.00;4218766;28;20672;-91
2022/06/21 03:17:11;;;;;;;4.30;3.53;;;;;;;14.33;83.54;98000.13;4220548;28;20655;-92
2022/06/21 03:19:21;;;;;;;5.30;3.63;;;;;;;14.31;83.54;97996.78;4207228;28;20846;-92
2022/06/21 03:21:27;;;;;;;6.00;3.77;;;;;;;14.34;82.89;98004.41;4207922;28;20705;-92
2022/06/21 03:23:32;;;;;;;7.73;3.70;;;;;;;14.27;80.79;97990.16;4206403;28;20623;-92
2022/06/21 03:25:43;;;;;;;5.43;3.60;;;;;;;14.33;81.61;97984.38;4217695;28;20640;-92
2022/06/21 03:27:51;;;;;;;7.27;4.07;;;;;;;14.41;81.27;97988.00;4208946;28;21348;-92
2022/06/21 03:29:55;;;;;;;4.57;3.87;;;;;;;14.48;81.96;97988.31;4204085;28;21069;-92
2022/06/21 03:32:00;;;;;;;5.00;4.00;;;;;;;14.54;81.72;97977.28;4220347;28;20698;-91
2022/06/21 03:34:07;;;;;;;5.67;4.07;;;;;;;14.56;81.97;97975.38;4218912;28;20660;-92
2022/06/21 03:36:13;;;;;;;7.50;4.10;;;;;;;14.60;80.26;97965.28;4206533;28;20765;-92
2022/06/21 03:38:16;;;;;;;5.07;4.07;;;;;;;14.66;80.83;97967.41;4209541;28;20635;-92
2022/06/21 03:42:46;;;;;;;5.93;3.70;;;;;;;14.74;80.52;97969.34;4209013;28;21270;-91
2022/06/21 03:44:53;;;;;;;4.10;3.70;;;;;;;14.83;78.67;97966.75;4217942;28;21056;-91
2022/06/21 03:47:01;;;;;;;9.93;4.03;;;;;;;14.91;78.84;97964.28;4215916;28;20661;-91
2022/06/21 03:49:09;;;;;;;6.83;4.10;;;;;;;14.99;77.74;97967.09;4218334;28;21369;-91
2022/06/21 03:51:14;;;;;;;6.27;3.77;;;;;;;15.12;74.84;97975.53;4204758;28;20638;-92
2022/06/21 03:53:31;;;;;;;8.00;5.03;;;;;;;15.22;74.98;97971.19;4215375;28;20634;-92
2022/06/21 03:55:46;;;;;;;6.57;5.43;;;;;;;15.32;76.06;97972.00;4205499;28;20674;-92
2022/06/21 03:57:57;;;;;;;6.27;4.10;;;;;;;15.43;75.14;97985.84;4207957;28;20669;-92
2022/06/21 04:00:03;;;;;;;3.40;3.10;;;;;;;15.49;75.34;97980.06;4201863;28;20687;-92
2022/06/21 04:02:10;;;;;;;4.30;3.00;;;;;;;15.57;76.26;97986.31;4219639;28;20634;-93
2022/06/21 04:04:18;;;;;;;5.23;3.43;;;;;;;15.68;74.12;97983.53;4210230;28;21196;-91
2022/06/21 04:06:26;;;;;;;4.53;3.13;;;;;;;15.79;74.37;97980.75;4208351;28;20977;-92
2022/06/21 04:08:34;;;;;;;3.63;3.27;;;;;;;15.84;74.82;97986.41;4216592;28;20635;-93
2022/06/21 04:10:54;;;;;;;5.77;2.73;;;;;;;15.95;75.02;97988.91;4211548;28;20629;-91
2022/06/21 04:13:00;;;;;;;5.10;3.13;;;;;;;16.03;74.92;97994.31;4206481;28;20760;-91
2022/06/21 04:15:07;;;;;;;5.33;3.37;;;;;;;16.06;73.75;97996.66;4214587;28;20637;-91
2022/06/21 04:17:13;;;;;;;4.50;3.30;;;;;;;16.12;72.98;98007.44;4201535;28;20987;-91
2022/06/21 04:19:24;;;;;;;4.17;3.10;;;;;;;16.18;72.71;98009.50;4217464;28;20761;-92
2022/06/21 04:21:32;;;;;;;4.47;3.03;;;;;;;16.20;71.14;98001.47;4208009;28;21274;-92
2022/06/21 04:23:44;;;;;;;4.70;3.20;;;;;;;16.25;70.75;97992.22;4221696;28;20652;-91
2022/06/21 04:25:54;;;;;;;4.70;2.97;;;;;;;16.31;72.08;97990.81;4203336;28;21244;-92
2022/06/21 04:28:00;;;;;;;4.40;3.20;;;;;;;16.36;70.21;97992.06;4231152;27;20647;-91
2022/06/21 04:30:15;;;;;;;3.90;3.40;;;;;;;16.43;72.22;98000.19;4200058;28;20665;-92
2022/06/21 04:32:22;;;;;;;4.50;3.13;;;;;;;16.50;71.11;97993.41;4214780;28;20649;-92
2022/06/21 04:34:30;;;;;;;5.07;2.90;;;;;;;16.52;69.13;97989.63;4216164;28;20670;-92
2022/06/21 04:36:37;;;;;;;6.20;3.27;;;;;;;16.55;70.70;97987.56;4222860;28;20658;-91
2022/06/21 04:38:44;;;;;;;4.70;2.97;;;;;;;16.63;70.26;97976.31;4229451;27;21202;-92
2022/06/21 04:40:51;;;;;;;5.13;3.20;;;;;;;16.65;70.64;97972.53;4215064;28;20664;-91
2022/06/21 04:43:01;;;;;;;4.77;2.80;;;;;;;16.73;68.76;97977.94;4220168;28;21289;-92
2022/06/21 04:45:08;;;;;;;5.73;3.23;;;;;;;16.77;68.58;97971.38;4200967;28;20642;-91
2022/06/21 04:47:17;;;;;;;2.87;2.30;;;;;;;16.86;68.98;97975.78;4212748;28;20633;-91
2022/06/21 04:49:29;;;;;;;5.67;3.00;;;;;;;16.95;68.27;97974.91;4220084;27;20632;-92
2022/06/21 04:51:38;;;;;;;4.33;3.20;;;;;;;16.99;67.67;97973.66;4204851;28;20637;-91
2022/06/21 04:53:49;;;;;;;4.50;3.47;;;;;;;17.06;67.71;97986.09;4210246;28;20669;-92
2022/06/21 04:55:59;;;;;;;5.30;3.10;;;;;;;17.17;67.59;97977.97;4203917;28;20638;-92
2022/06/21 04:58:03;;;;;;;4.83;3.13;;;;;;;17.29;67.32;97986.50;4201395;28;20674;-92
2022/06/21 05:00:11;;;;;;;4.33;2.67;;;;;;;17.38;67.80;97985.63;4222034;28;21274;-91
2022/06/21 05:02:18;;;;;;;3.90;2.83;;;;;;;17.49;66.92;97984.44;4221920;28;21086;-92
2022/06/21 05:04:24;;;;;;;5.43;2.77;;;;;;;17.60;66.34;97980.75;4220650;28;20621;-91
2022/06/21 05:06:28;;;;;;;7.13;2.77;;;;;;;17.70;66.48;97987.63;4202678;28;21220;-92
2022/06/21 05:08:32;;;;;;;5.00;3.10;;;;;;;17.83;66.40;97992.50;4205510;28;20723;-92
2022/06/21 05:10:37;;;;;;;5.70;3.47;;;;;;;17.94;64.49;97991.28;4219693;28;20634;-91
2022/06/21 05:12:43;;;;;;;5.07;2.93;;;;;;;18.04;64.85;97984.13;4205120;28;20716;-92
2022/06/21 05:14:51;;;;;;;2.93;2.47;;;;;;;18.10;64.47;97985.31;4215165;28;21003;-92
2022/06/21 05:16:55;;;;;;;7.40;3.07;;;;;;;18.15;65.04;97980.44;4214217;28;20732;-91
2022/06/21 05:19:00;;;;;;;7.00;3.27;;;;;;;18.19;65.42;97980.00;4202836;28;20635;-92
2022/06/21 05:21:07;;;;;;;4.30;2.60;;;;;;;18.25;64.69;97992.59;4202189;28;20655;-91
2022/06/21 05:23:12;;;;;;;7.80;2.90;;;;;;;18.31;64.23;97991.13;4203551;28;21272;-89
2022/06/21 05:25:22;;;;;;;5.00;2.63;;;;;;;18.36;65.40;97986.19;4212579;28;20627;-89
2022/06/21 05:27:30;;;;;;;4.33;2.40;;;;;;;18.38;64.80;97992.16;4202959;28;20700;-88
2022/06/21 05:29:40;;;;;;;5.80;3.10;;;;;;;18.38;65.26;97990.34;4201604;28;20672;-88
2022/06/21 05:31:47;;;;;;;3.80;2.90;;;;;;;18.51;65.20;97996.88;4204221;28;20632;-88
2022/06/21 05:33:52;;;;;;;6.20;3.13;;;;;;;18.55;64.81;97985.03;4201449;28;21297;-91
2022/06/21 05:35:55;;;;;;;5.83;2.70;;;;;;;18.58;64.92;97991.78;4215625;28;21209;-90
2022/06/21 05:38:02;;;;;;;5.13;3.20;;;;;;;18.70;65.06;97988.75;4212668;28;20747;-90
2022/06/21 05:40:13;;;;;;;5.47;3.03;;;;;;;18.93;64.36;97984.56;4193336;28;21125;-91
2022/06/21 05:42:19;;;;;;;3.50;2.67;;;;;;;19.06;63.66;97984.97;4200352;28;20680;-91
2022/06/21 05:44:31;;;;;;;4.37;2.80;;;;;;;19.35;63.17;97998.59;4200202;28;20658;-90
2022/06/21 05:46:38;;;;;;;5.37;3.10;;;;;;;19.64;62.36;97999.84;4202285;28;20652;-90
2022/06/21 05:48:44;;;;;;;4.73;2.63;;;;;;;19.96;61.11;98000.75;4218997;28;20623;-89
2022/06/21 05:50:48;;;;;;;6.83;2.80;;;;;;;20.14;61.40;97996.94;4218843;28;20673;-92
2022/06/21 05:52:54;;;;;;;4.57;2.77;;;;;;;20.32;62.12;98001.06;4201547;28;20645;-89
2022/06/21 05:55:04;;;;;;;4.00;2.50;;;;;;;20.59;60.29;97999.88;4202899;28;20735;-90
2022/06/21 05:57:10;;;;;;;3.37;2.40;;;;;;;20.86;60.67;98003.81;4205923;28;20740;-89
2022/06/21 05:59:16;;;;;;;3.80;2.83;;;;;;;20.97;60.61;98003.47;4225172;28;20664;-88
2022/06/21 06:01:23;;;;;;;3.73;2.53;;;;;;;21.25;60.74;97990.59;4212720;28;20980;-86
2022/06/21 06:03:31;;;;;;;3.00;2.37;;;;;;;21.53;59.54;97995.25;4208958;28;20694;-90
2022/06/21 06:05:37;;;;;;;7.47;2.93;;;;;;;21.72;59.81;97998.31;4208400;28;20647;-88
2022/06/21 06:07:43;;;;;;;6.20;2.67;;;;;;;21.95;59.40;97999.13;4225947;28;20629;-87
2022/06/21 06:09:48;;;;;;;5.93;2.60;;;;;;;22.08;58.01;97988.75;4219278;27;20627;-89
2022/06/21 06:12:26;;;;;;;2.50;2.30;;;;;;;22.38;58.68;97992.16;4169311;28;20650;-89
2022/06/21 06:14:38;;;;;;;2.93;2.43;;;;;;;22.75;57.57;97994.81;4157792;28;20695;-88
2022/06/21 06:16:43;;;;;;;3.20;2.30;;;;;;;23.02;55.84;97996.84;4157604;28;21296;-88
2022/06/21 06:18:51;;;;;;;4.83;2.50;;;;;;;23.22;55.76;97998.78;4154981;28;20630;-84
2022/06/21 06:20:58;;;;;;;5.20;3.53;;;;;;;23.50;55.18;98003.25;4156345;28;20653;-85
2022/06/21 06:23:08;;;;;;;5.53;3.10;;;;;;;23.71;55.41;98004.13;4155591;28;20660;-84
2022/06/21 06:25:15;;;;;;;3.50;2.60;;;;;;;23.94;56.96;98014.63;4158430;28;20638;-87
2022/06/21 06:27:29;;;;;;;3.07;2.57;;;;;;;24.12;55.04;98015.03;4157703;28;21060;-87
2022/06/21 06:29:35;;;;;;;5.47;2.93;;;;;;;24.44;55.15;98010.84;4207200;28;21070;-87
2022/06/21 06:31:43;;;;;;;3.87;2.50;;;;;;;24.75;55.04;98013.97;4205177;28;20635;-86
2022/06/21 06:33:48;;;;;;;3.33;2.20;;;;;;;24.93;51.75;98033.00;4205446;28;21092;-86
2022/06/21 06:35:53;;;;;;;5.73;2.90;;;;;;;25.03;52.00;98026.28;4216468;28;20628;-86
2022/06/21 06:37:57;;;;;;;7.23;3.00;;;;;;;25.17;50.47;98014.69;4225753;28;20641;-86
2022/06/21 06:40:01;;;;;;;3.50;2.67;;;;;;;25.22;50.86;98020.25;4204979;28;20627;-86
2022/06/21 06:42:07;;;;;;;4.13;2.43;;;;;;;25.35;50.95;98025.66;4230014;28;20652;-85
2022/06/21 06:44:12;;;;;;;4.47;2.83;;;;;;;25.40;51.96;98031.25;4218245;28;20737;-87
2022/06/21 06:46:25;;;;;;;3.80;2.40;;;;;;;25.24;50.97;98015.53;4222677;27;20643;-87
2022/06/21 06:48:32;;;;;;;3.40;2.33;;;;;;;24.90;50.79;98020.84;4217677;28;21187;-87
2022/06/21 06:50:39;;;;;;;4.27;2.50;;;;;;;24.74;52.13;98012.31;4210355;28;21076;-86
2022/06/21 06:52:47;;;;;;;6.80;2.80;;;;;;;24.92;51.86;98013.47;4211249;28;20660;-83
2022/06/21 06:54:55;;;;;;;4.47;3.07;;;;;;;25.25;51.59;98011.84;4219441;28;20653;-83
2022/06/21 06:57:04;;;;;;;4.53;2.77;;;;;;;25.48;50.92;98018.53;4224940;28;20620;-83
2022/06/21 06:59:12;;;;;;;4.73;2.70;;;;;;;25.50;51.35;98016.50;4206308;28;20628;-83
2022/06/21 07:01:17;;;;;;;3.00;2.63;;;;;;;25.73;51.29;98012.50;4212997;28;20722;-83
2022/06/21 07:03:23;;;;;;;3.20;2.27;;;;;;;25.92;50.37;98011.75;4207639;28;20733;-85
2022/06/21 07:05:30;;;;;;;4.43;2.43;;;;;;;26.04;50.53;98015.47;4199702;28;21208;-83
2022/06/21 07:07:40;;;;;;;4.40;2.93;;;;;;;26.16;49.67;98014.69;4222641;27;20688;-82
2022/06/21 07:09:46;;;;;;;4.30;2.50;;;;;;;26.14;49.81;98005.19;4202571;28;20655;-83
2022/06/21 07:11:53;;;;;;;3.03;2.33;;;;;;;26.23;49.97;98003.97;4216347;28;21213;-83
2022/06/21 07:13:58;;;;;;;4.37;2.73;;;;;;;26.10;49.85;97996.75;4214253;28;20638;-82
2022/06/21 07:16:04;;;;;;;4.40;2.63;;;;;;;26.07;49.69;97996.34;4212294;27;20722;-83
2022/06/21 07:18:13;;;;;;;5.23;3.30;;;;;;;26.29;51.08;98006.69;4202855;28;21705;-82
2022/06/21 07:20:19;;;;;;;4.17;2.80;;;;;;;26.46;49.92;98001.75;4205468;28;20636;-82
2022/06/21 07:22:27;;;;;;;4.83;2.80;;;;;;;26.41;49.64;98001.56;4215433;28;21129;-83
2022/06/21 07:24:31;;;;;;;4.37;2.53;;;;;;;26.49;51.18;98015.56;4217509;28;21050;-83
2022/06/21 07:26:38;;;;;;;4.07;3.00;;;;;;;26.69;50.40;98019.06;4203403;28;20640;-83
2022/06/21 07:28:45;;;;;;;3.90;2.50;;;;;;;26.87;49.75;98019.25;4200716;28;20659;-84
2022/06/21 07:30:53;;;;;;;4.47;2.57;;;;;;;27.02;50.05;98009.16;4213247;28;20706;-83
2022/06/21 07:33:00;;;;;;;5.00;2.80;;;;;;;27.10;50.44;98015.94;4200958;28;20634;-84
2022/06/21 07:35:07;;;;;;;4.87;2.93;;;;;;;27.18;51.63;98007.69;4214991;27;20750;-84
2022/06/21 07:37:15;;;;;;;3.27;2.33;;;;;;;27.33;50.22;98008.25;4199628;28;20751;-83
2022/06/21 07:39:21;;;;;;;4.10;2.87;;;;;;;27.41;50.15;98021.44;4220862;28;20653;-83
2022/06/21 07:41:28;;;;;;;3.23;2.23;;;;;;;27.42;50.10;98028.44;4215530;28;20645;-83
2022/06/21 07:43:36;;;;;;;4.60;2.60;;;;;;;27.36;48.54;98026.59;4193300;28;20632;-83
2022/06/21 07:45:56;;;;;;;3.50;2.57;;;;;;;27.32;48.05;98025.38;4200304;28;20662;-83
2022/06/21 07:48:04;;;;;;;4.90;3.00;;;;;;;27.43;48.27;98032.75;4198129;28;20632;-83
2022/06/21 07:50:11;;;;;;;5.50;3.00;;;;;;;27.52;48.72;98026.16;4203638;28;20613;-83
2022/06/21 07:52:20;;;;;;;3.70;2.47;;;;;;;27.63;49.37;98023.66;4201343;28;20654;-83
2022/06/21 07:54:27;;;;;;;3.27;2.63;;;;;;;27.81;49.00;98022.94;4213387;28;20992;-83
2022/06/21 07:56:34;;;;;;;4.10;2.80;;;;;;;27.83;49.59;98016.34;4201046;28;20659;-83
2022/06/21 07:58:48;;;;;;;5.70;2.90;;;;;;;27.76;48.47;98012.06;4185901;28;21257;-84
2022/06/21 08:08:11;;;;;;;5.30;2.60;;;;;;;26.96;48.69;97978.69;4196454;28;20638;-83
2022/06/21 08:10:20;;;;;;;4.20;2.93;;;;;;;26.75;49.92;97968.19;4217038;28;20675;-84
2022/06/21 08:12:23;;;;;;;4.07;2.70;;;;;;;26.57;49.42;97954.59;4204003;28;20650;-83
2022/06/21 08:14:29;;;;;;;4.17;2.60;;;;;;;26.49;50.00;97946.00;4205231;28;20639;-83
2022/06/21 08:16:36;;;;;;;6.13;3.17;;;;;;;26.53;50.98;97939.16;4211671;28;20624;-84
2022/06/21 08:18:49;;;;;;;3.43;2.60;;;;;;;26.48;50.90;97933.63;4198355;28;20633;-84
2022/06/21 08:20:57;;;;;;;3.50;2.50;;;;;;;26.19;50.54;97931.34;4204341;28;21224;-84
2022/06/21 08:23:04;;;;;;;4.57;2.57;;;;;;;26.09;50.19;97925.56;4215174;28;20699;-84
2022/06/21 08:25:15;;;;;;;3.67;2.80;;;;;;;26.17;50.55;97906.63;4214162;28;20651;-84
2022/06/21 08:27:27;;;;;;;5.10;3.03;;;;;;;26.28;51.19;97906.06;4219181;28;20651;-83
2022/06/21 08:29:33;;;;;;;3.50;2.20;;;;;;;26.55;51.10;97909.50;4211626;28;21019;-83
2022/06/21 08:31:41;;;;;;;4.83;2.60;;;;;;;26.72;49.91;97892.81;4203985;28;21221;-83
2022/06/21 08:33:50;;;;;;;4.27;2.80;;;;;;;26.83;50.31;97889.47;4207757;28;20715;-86
2022/06/21 08:35:58;;;;;;;4.13;2.93;;;;;;;27.13;48.71;97883.44;4198045;28;21030;-86
2022/06/21 08:38:06;;;;;;;3.90;2.30;;;;;;;26.81;48.86;97899.59;4196635;28;20640;-87
2022/06/21 08:40:26;;;;;;;4.37;2.70;;;;;;;26.83;49.29;97929.66;4197620;28;20644;-86
2022/06/21 08:43:07;;;;;;;4.17;3.03;;;;;;;26.74;49.71;97923.69;4199942;28;20650;-86
2022/06/21 08:45:41;;;;;;;4.40;2.60;;;;;;;27.11;49.39;97931.06;4220396;28;20668;-85
2022/06/21 08:48:22;;;;;;;5.20;2.63;;;;;;;27.52;50.71;97937.69;4205609;28;20624;-86
2022/06/21 08:50:39;;;;;;;4.73;2.80;;;;;;;27.73;48.68;97940.06;4153728;28;20663;-84
2022/06/21 08:53:21;;;;;;;3.20;2.43;;;;;;;27.84;47.56;97942.06;4201502;28;20714;-84
2022/06/21 08:55:31;;;;;;;3.73;2.50;;;;;;;27.41;47.69;97938.34;4219851;28;20650;-84
2022/06/21 08:57:40;;;;;;;7.00;3.20;;;;;;;27.00;49.36;97930.88;4213469;28;20642;-84
2022/06/21 09:00:00;;;;;;;3.03;2.47;;;;;;;27.00;48.99;97931.69;4205807;28;20642;-86
2022/06/21 09:02:10;;;;;;;6.77;3.10;;;;;;;26.93;49.81;97916.66;4201355;28;20687;-90
2022/06/21 09:04:43;;;;;;;5.20;2.80;;;;;;;26.82;49.74;97915.44;4211848;28;20660;-83
2022/06/21 09:06:59;;;;;;;4.37;2.80;;;;;;;26.75;50.38;97914.63;4201040;28;20634;-83
2022/06/21 09:09:25;;;;;;;3.90;2.50;;;;;;;26.70;50.50;97908.25;4199589;28;21287;-83
2022/06/21 09:11:32;;;;;;;5.03;2.80;;;;;;;26.68;49.20;97913.00;4211841;28;20630;-83
2022/06/21 09:13:47;;;;;;;4.63;2.93;;;;;;;26.68;49.43;97915.69;4198956;28;20662;-84
2022/06/21 09:15:57;;;;;;;4.13;3.00;;;;;;;26.76;50.84;97907.41;4214279;28;20660;-83
2022/06/21 09:18:12;;;;;;;3.47;2.60;;;;;;;26.94;51.45;97902.25;4200392;28;20646;-83
2022/06/21 09:20:26;;;;;;;4.83;2.90;;;;;;;26.99;49.65;97902.44;4210318;28;20635;-84
2022/06/21 09:22:59;;;;;;;4.43;2.60;;;;;;;26.93;51.27;97890.72;4200026;28;20666;-84
2022/06/21 09:25:11;;;;;;;3.13;2.70;;;;;;;26.89;50.81;97884.13;4203512;28;20638;-84
2022/06/21 09:27:19;;;;;;;3.60;2.80;;;;;;;26.84;49.98;97888.47;4200910;28;20744;-84
2022/06/21 09:29:28;;;;;;;4.10;2.57;;;;;;;26.71;50.58;97870.56;4199685;28;20652;-84
2022/06/21 09:31:49;;;;;;;4.23;2.67;;;;;;;26.86;50.78;97878.34;4198582;28;21275;-85
2022/06/21 09:33:56;;;;;;;4.67;3.00;;;;;;;26.85;50.07;97888.25;4212976;28;20739;-85
2022/06/21 09:36:06;;;;;;;5.27;2.77;;;;;;;26.78;49.54;97892.78;4217744;28;20640;-84
2022/06/21 09:38:19;;;;;;;3.63;2.70;;;;;;;26.89;50.80;97894.84;4198329;28;20654;-84
2022/06/21 09:40:27;;;;;;;4.20;2.80;;;;;;;26.90;49.86;97888.47;4198990;28;20745;-84
2022/06/21 09:42:57;;;;;;;4.10;2.43;;;;;;;26.76;50.21;97899.38;4210469;28;20676;-85
2022/06/21 09:45:28;;;;;;;4.30;3.30;;;;;;;26.77;52.61;97895.69;4211225;28;20660;-84
2022/06/21 09:47:38;;;;;;;4.77;2.83;;;;;;;26.98;51.62;97900.81;4204155;28;20690;-84
2022/06/21 09:49:47;;;;;;;3.27;2.60;;;;;;;27.12;50.03;97890.66;4198827;28;20642;-84
2022/06/21 09:52:03;;;;;;;5.13;2.80;;;;;;;27.06;49.06;97899.53;4200844;28;20644;-83
2022/06/21 09:54:14;;;;;;;4.63;2.40;;;;;;;27.01;50.34;97892.34;4199138;28;21009;-84
2022/06/21 09:56:25;;;;;;;2.93;2.57;;;;;;;27.05;50.22;97883.69;4217144;28;20643;-84
2022/06/21 09:58:32;;;;;;;5.73;3.03;;;;;;;26.96;49.58;97890.31;4216541;28;20626;-84
2022/06/21 10:00:41;;;;;;;3.33;2.53;;;;;;;26.93;51.15;97898.75;4209690;28;20647;-84
2022/06/21 10:02:54;;;;;;;3.27;2.57;;;;;;;26.68;49.10;97896.94;4201917;28;20662;-84
2022/06/21 10:05:04;;;;;;;4.77;2.30;;;;;;;26.83;50.62;97900.19;4212020;28;21204;-84
2022/06/21 10:07:17;;;;;;;4.30;2.67;;;;;;;26.87;48.92;97909.47;4199314;28;20768;-84
2022/06/21 10:09:28;;;;;;;4.97;2.33;;;;;;;26.96;49.45;97900.16;4196134;28;20742;-84
2022/06/21 10:11:40;;;;;;;4.20;2.63;;;;;;;27.23;49.88;97897.22;4198990;28;20623;-83
2022/06/21 10:14:00;;;;;;;4.47;3.30;;;;;;;27.27;50.89;97899.25;4208059;28;20839;-84
2022/06/21 10:16:16;;;;;;;5.00;2.93;;;;;;;27.37;51.13;97898.78;4199365;28;20654;-84